createdAt,value
2023-03-20T00:01:12.740Z,101398.00
2023-03-20T00:03:39.178Z,101371.75
2023-03-20T00:06:06.151Z,101405.63
2023-03-20T00:08:33.030Z,101433.72
2023-03-20T00:10:59.575Z,101349.81
2023-03-20T00:13:28.293Z,101434.28
2023-03-20T00:15:55.020Z,101398.59
2023-03-20T00:18:24.799Z,101424.94
2023-03-20T00:20:51.962Z,101445.72
2023-03-20T00:23:18.633Z,101336.13
2023-03-20T00:25:46.890Z,101442.09
2023-03-20T00:28:36.297Z,101424.47
2023-03-20T00:31:02.928Z,101420.19
2023-03-20T00:33:31.301Z,101390.31
2023-03-20T00:35:59.038Z,101338.69
2023-03-20T00:38:25.889Z,101437.59
2023-03-20T00:40:52.591Z,101409.25
2023-03-20T00:43:19.177Z,101406.72
2023-03-20T00:45:46.659Z,101413.88
2023-03-20T00:48:16.854Z,101348.00
2023-03-20T00:50:43.593Z,101440.84
2023-03-20T00:53:11.850Z,101444.50
2023-03-20T00:55:40.038Z,101426.78
2023-03-20T00:58:06.817Z,101243.66
2023-03-20T01:00:42.778Z,101397.97
2023-03-20T01:03:18.674Z,101413.22
2023-03-20T01:05:46.348Z,101413.88
2023-03-20T01:08:21.419Z,101362.97
2023-03-20T01:10:53.003Z,101391.47
2023-03-20T01:13:24.005Z,101433.81
2023-03-20T01:15:52.492Z,101403.44
2023-03-20T01:18:21.457Z,101440.84
2023-03-20T01:20:49.033Z,101411.81
2023-03-20T01:23:16.353Z,101328.72
2023-03-20T01:25:43.077Z,101381.19
2023-03-20T01:28:23.204Z,101433.25
2023-03-20T01:30:50.582Z,101390.34
2023-03-20T01:33:23.854Z,101439.44
2023-03-20T01:35:51.490Z,101442.25
2023-03-20T01:38:26.276Z,101398.78
2023-03-20T01:41:01.816Z,101301.56
2023-03-20T01:43:29.515Z,101457.84
2023-03-20T01:46:04.130Z,101409.47
2023-03-20T01:48:52.634Z,101448.28
2023-03-20T01:51:22.739Z,101448.91
2023-03-20T01:53:58.813Z,101456.25
2023-03-20T01:56:27.064Z,101459.56
2023-03-20T01:58:59.991Z,101407.31
2023-03-20T02:01:27.881Z,101384.00
2023-03-20T02:03:55.757Z,101386.47
2023-03-20T02:06:23.846Z,101458.69
2023-03-20T02:08:52.417Z,101459.34
2023-03-20T02:11:22.493Z,101395.97
2023-03-20T02:13:53.021Z,101443.28
2023-03-20T02:16:20.360Z,101379.66
2023-03-20T02:18:49.767Z,101449.47
2023-03-20T02:21:55.362Z,101447.78
2023-03-20T02:24:49.907Z,101451.09
2023-03-20T02:27:20.673Z,101385.88
2023-03-20T02:30:09.118Z,101447.25
2023-03-20T02:33:00.526Z,101451.28
2023-03-20T02:35:57.925Z,101451.78
2023-03-20T02:38:43.937Z,101454.22
2023-03-20T02:41:19.479Z,101446.22
2023-03-20T02:43:59.327Z,101448.28
2023-03-20T02:46:50.855Z,101409.41
2023-03-20T02:49:31.760Z,101444.66
2023-03-20T02:52:08.257Z,101445.06
2023-03-20T02:54:43.966Z,101447.22
2023-03-20T02:57:27.256Z,101420.06
2023-03-20T03:00:00.369Z,101395.41
2023-03-20T03:02:45.030Z,101395.00
2023-03-20T03:05:37.691Z,101414.66
2023-03-20T03:08:06.799Z,101442.13
2023-03-20T03:10:39.131Z,101446.75
2023-03-20T03:13:14.477Z,101426.28
2023-03-20T03:15:45.675Z,101431.09
2023-03-20T03:18:17.560Z,101349.16
2023-03-20T03:20:46.683Z,101381.38
2023-03-20T03:23:45.577Z,101422.97
2023-03-20T03:26:37.029Z,101401.19
2023-03-20T03:29:12.255Z,101355.44
2023-03-20T03:31:39.180Z,101366.22
2023-03-20T03:34:06.454Z,101375.41
2023-03-20T03:36:51.681Z,101396.47
2023-03-20T03:39:27.145Z,101364.41
2023-03-20T03:42:27.847Z,101426.63
2023-03-20T03:44:57.930Z,101417.09
2023-03-20T03:47:32.802Z,101407.25
2023-03-20T03:50:06.661Z,101408.22
2023-03-20T03:52:35.918Z,101371.28
2023-03-20T03:55:11.420Z,101365.00
2023-03-20T03:57:50.415Z,101344.06
2023-03-20T04:00:24.981Z,101350.22
2023-03-20T04:02:54.608Z,101401.56
2023-03-20T04:05:22.810Z,101369.84
2023-03-20T04:07:55.351Z,101411.47
2023-03-20T04:10:21.868Z,101394.78
2023-03-20T04:12:48.383Z,101398.91
2023-03-20T04:15:16.877Z,101398.91
2023-03-20T04:17:44.668Z,101369.34
2023-03-20T04:20:14.997Z,101393.81
2023-03-20T04:22:41.685Z,101404.31
2023-03-20T04:25:10.315Z,101397.19
2023-03-20T04:27:36.759Z,101259.13
2023-03-20T04:30:03.367Z,101306.06
2023-03-20T04:32:29.794Z,101375.19
2023-03-20T04:34:56.301Z,101398.03
2023-03-20T04:37:22.722Z,101401.53
2023-03-20T04:39:49.283Z,101401.41
2023-03-20T04:42:15.769Z,101364.03
2023-03-20T04:44:42.204Z,101399.72
2023-03-20T04:47:08.640Z,101365.25
2023-03-20T04:49:35.519Z,101276.91
2023-03-20T04:52:02.052Z,101401.66
2023-03-20T04:54:28.509Z,101369.47
2023-03-20T04:56:55.036Z,101384.34
2023-03-20T04:59:21.618Z,101402.78
2023-03-20T05:01:48.117Z,101399.38
2023-03-20T05:04:14.592Z,101311.63
2023-03-20T05:06:41.328Z,101343.81
2023-03-20T05:09:07.772Z,101310.56
2023-03-20T05:11:34.333Z,101361.47
2023-03-20T05:14:00.766Z,101355.22
2023-03-20T05:16:27.476Z,101318.19
2023-03-20T05:18:53.998Z,101397.69
2023-03-20T05:21:20.597Z,101370.81
2023-03-20T05:23:47.128Z,101379.56
2023-03-20T05:26:13.609Z,101360.78
2023-03-20T05:28:40.183Z,101414.66
2023-03-20T05:31:07.215Z,101379.31
2023-03-20T05:33:35.560Z,101417.47
2023-03-20T05:36:03.868Z,101377.84
2023-03-20T05:38:33.527Z,101358.59
2023-03-20T05:41:01.074Z,101389.97
2023-03-20T05:43:30.520Z,101337.53
2023-03-20T05:45:57.012Z,101391.78
2023-03-20T05:48:24.017Z,101381.25
2023-03-20T05:50:50.592Z,101378.09
2023-03-20T05:53:17.132Z,101366.59
2023-03-20T05:55:44.707Z,101415.03
2023-03-20T05:58:12.162Z,101438.78
2023-03-20T06:00:39.580Z,101405.94
2023-03-20T06:03:06.981Z,101369.25
2023-03-20T06:05:35.488Z,101330.63
2023-03-20T06:08:02.863Z,101407.75
2023-03-20T06:10:30.482Z,101447.34
2023-03-20T06:13:00.821Z,101391.03
2023-03-20T06:15:28.362Z,101437.56
2023-03-20T06:17:56.234Z,101414.53
2023-03-20T06:20:22.981Z,101444.44
2023-03-20T06:22:49.513Z,101430.91
2023-03-20T06:25:16.288Z,101430.78
2023-03-20T06:27:42.778Z,101392.38
2023-03-20T06:30:10.363Z,101440.81
2023-03-20T06:32:36.945Z,101405.56
2023-03-20T06:35:05.766Z,101458.38
2023-03-20T06:37:32.681Z,101445.91
2023-03-20T06:39:59.508Z,101443.84
2023-03-20T06:42:26.093Z,101445.28
2023-03-20T06:44:52.694Z,101442.25
2023-03-20T06:47:19.349Z,101477.63
2023-03-20T06:49:46.166Z,101408.34
2023-03-20T06:52:17.900Z,101454.97
2023-03-20T06:54:44.860Z,101351.44
2023-03-20T06:57:14.642Z,101455.34
2023-03-20T06:59:41.693Z,101454.09
2023-03-20T07:02:10.531Z,101399.00
2023-03-20T07:04:37.251Z,101367.06
2023-03-20T07:07:04.298Z,101463.34
2023-03-20T07:09:31.037Z,101470.25
2023-03-20T07:11:57.588Z,101390.25
2023-03-20T07:14:24.080Z,101418.84
2023-03-20T07:16:50.609Z,101467.19
2023-03-20T07:19:17.931Z,101438.34
2023-03-20T07:21:44.755Z,101430.34
2023-03-20T07:24:12.076Z,101392.22
2023-03-20T07:26:38.628Z,101383.25
2023-03-20T07:29:05.392Z,101474.31
2023-03-20T07:31:35.591Z,101483.88
2023-03-20T07:34:02.024Z,101463.34
2023-03-20T07:36:28.579Z,101399.19
2023-03-20T07:38:55.081Z,101456.38
2023-03-20T07:41:27.780Z,101480.47
2023-03-20T07:43:54.235Z,101438.56
2023-03-20T07:46:20.749Z,101385.53
2023-03-20T07:48:47.336Z,101403.81
2023-03-20T07:51:13.746Z,101317.47
2023-03-20T07:53:40.266Z,101373.38
2023-03-20T07:56:07.144Z,101440.31
2023-03-20T07:58:33.706Z,101421.16
2023-03-20T08:01:00.391Z,101397.81
2023-03-20T08:03:27.188Z,101381.44
2023-03-20T08:05:54.203Z,101446.63
2023-03-20T08:08:21.018Z,101430.47
2023-03-20T08:10:48.189Z,101385.72
2023-03-20T08:13:15.620Z,101405.47
2023-03-20T08:15:42.073Z,101407.19
2023-03-20T08:18:08.649Z,101493.06
2023-03-20T08:20:35.198Z,101468.22
2023-03-20T08:23:01.867Z,101447.50
2023-03-20T08:25:32.509Z,101465.75
2023-03-20T08:28:01.207Z,101470.13
2023-03-20T08:30:27.993Z,101470.72
2023-03-20T08:32:54.497Z,101441.78
2023-03-20T08:35:32.634Z,101497.69
2023-03-20T08:38:03.237Z,101498.19
2023-03-20T08:40:29.869Z,101451.38
2023-03-20T08:42:56.611Z,101393.66
2023-03-20T08:45:25.865Z,101475.75
2023-03-20T08:47:53.003Z,101423.72
2023-03-20T08:50:19.647Z,101492.84
2023-03-20T08:52:47.010Z,101461.13
2023-03-20T08:55:14.814Z,101486.78
2023-03-20T08:57:41.512Z,101490.84
2023-03-20T09:00:10.446Z,101494.84
2023-03-20T09:02:37.232Z,101497.25
2023-03-20T09:05:04.065Z,101444.22
2023-03-20T09:07:30.737Z,101493.34
2023-03-20T09:09:57.161Z,101456.06
2023-03-20T09:12:23.956Z,101498.16
2023-03-20T09:14:50.485Z,101409.56
2023-03-20T09:17:16.979Z,101406.38
2023-03-20T09:19:44.723Z,101425.38
2023-03-20T09:22:17.961Z,101489.50
2023-03-20T09:24:45.539Z,101415.34
2023-03-20T09:27:13.944Z,101437.56
2023-03-20T09:29:41.333Z,101468.19
2023-03-20T09:32:11.827Z,101503.28
2023-03-20T09:34:38.446Z,101483.03
2023-03-20T09:37:05.057Z,101495.72
2023-03-20T09:39:31.642Z,101471.31
2023-03-20T09:42:03.738Z,101511.97
2023-03-20T09:45:01.553Z,101510.69
2023-03-20T09:47:42.490Z,101518.31
2023-03-20T09:50:34.496Z,101495.63
2023-03-20T09:53:16.733Z,101518.63
2023-03-20T09:55:44.464Z,101529.59
2023-03-20T09:58:18.420Z,101496.03
2023-03-20T10:00:46.756Z,101517.78
2023-03-20T10:03:25.113Z,101480.53
2023-03-20T10:06:06.831Z,101509.19
2023-03-20T10:08:36.377Z,101514.78
2023-03-20T10:11:24.183Z,101518.91
2023-03-20T10:14:02.130Z,101527.91
2023-03-20T10:16:56.239Z,101516.63
2023-03-20T10:19:26.168Z,101514.34
2023-03-20T10:21:58.421Z,101512.25
2023-03-20T10:24:39.233Z,101453.03
2023-03-20T10:27:28.362Z,101421.66
2023-03-20T10:30:21.369Z,101480.53
2023-03-20T10:32:58.301Z,101500.13
2023-03-20T10:35:55.236Z,101494.50
2023-03-20T10:38:40.085Z,101510.28
2023-03-20T10:41:16.101Z,101502.00
2023-03-20T10:43:46.127Z,101490.13
2023-03-20T10:46:27.487Z,101503.97
2023-03-20T10:49:12.169Z,101490.34
2023-03-20T10:51:51.607Z,101417.56
2023-03-20T10:54:26.755Z,101421.38
2023-03-20T10:56:56.596Z,101426.19
2023-03-20T10:59:48.402Z,101457.69
2023-03-20T11:02:20.670Z,101436.66
2023-03-20T11:04:47.508Z,101453.19
2023-03-20T11:07:35.059Z,101467.13
2023-03-20T11:10:04.634Z,101479.00
2023-03-20T11:12:50.489Z,101470.53
2023-03-20T11:15:26.678Z,101449.78
2023-03-20T11:18:04.715Z,101486.59
2023-03-20T11:20:39.138Z,101441.63
2023-03-20T11:23:08.476Z,101493.78
2023-03-20T11:25:38.780Z,101423.88
2023-03-20T11:28:23.980Z,101475.06
2023-03-20T11:31:04.353Z,101461.50
2023-03-20T11:33:33.560Z,101494.50
2023-03-20T11:36:00.468Z,101472.22
2023-03-20T11:38:31.277Z,101414.41
2023-03-20T11:40:57.842Z,101425.56
2023-03-20T11:43:27.475Z,101439.97
2023-03-20T11:45:59.648Z,101455.03
2023-03-20T11:48:47.590Z,101449.53
2023-03-20T11:51:20.132Z,101471.09
2023-03-20T11:53:49.328Z,101463.50
2023-03-20T11:56:26.036Z,101436.69
2023-03-20T11:58:57.830Z,101453.03
2023-03-20T12:01:26.341Z,101452.78
2023-03-20T12:04:02.308Z,101450.81
2023-03-20T12:06:42.643Z,101465.75
2023-03-20T12:09:16.022Z,101457.69
2023-03-20T12:12:03.540Z,101461.09
2023-03-20T12:14:52.375Z,101450.81
2023-03-20T12:17:27.721Z,101462.66
2023-03-20T12:20:01.727Z,101429.38
2023-03-20T12:22:36.475Z,101422.34
2023-03-20T12:25:18.094Z,101452.50
2023-03-20T12:27:53.246Z,101408.81
2023-03-20T12:30:42.754Z,101460.25
2023-03-20T12:33:27.547Z,101450.50
2023-03-20T12:35:54.671Z,101417.22
2023-03-20T12:38:28.267Z,101370.63
2023-03-20T12:41:08.217Z,101307.09
2023-03-20T12:43:46.896Z,101432.66
2023-03-20T12:46:30.901Z,101434.03
2023-03-20T12:49:13.070Z,101356.09
2023-03-20T12:51:45.532Z,101442.22
2023-03-20T12:54:23.701Z,101433.09
2023-03-20T12:57:02.211Z,101431.44
2023-03-20T12:59:31.563Z,101432.53
2023-03-20T13:02:33.668Z,101430.22
2023-03-20T13:05:07.811Z,101426.53
2023-03-20T13:08:03.846Z,101423.50
2023-03-20T13:10:37.089Z,101423.44
2023-03-20T13:13:56.326Z,101407.53
2023-03-20T13:16:35.468Z,101415.59
2023-03-20T13:19:01.924Z,101413.50
2023-03-20T13:22:14.234Z,101417.59
2023-03-20T13:25:10.668Z,101410.41
2023-03-20T13:27:45.953Z,101398.97
2023-03-20T13:30:34.239Z,101408.56
2023-03-20T13:33:42.064Z,101411.00
2023-03-20T13:36:29.843Z,101408.81
2023-03-20T13:39:10.229Z,101379.00
2023-03-20T13:41:36.844Z,101373.44
2023-03-20T13:44:05.788Z,101383.31
2023-03-20T13:46:47.261Z,101406.13
2023-03-20T13:49:20.526Z,101365.63
2023-03-20T13:52:03.491Z,101401.16
2023-03-20T13:54:36.194Z,101405.09
2023-03-20T13:57:35.564Z,101378.06
2023-03-20T14:00:36.501Z,101403.56
2023-03-20T14:03:06.098Z,101395.22
2023-03-20T14:05:38.855Z,101370.16
2023-03-20T14:08:27.185Z,101388.63
2023-03-20T14:11:05.873Z,101396.94
2023-03-20T14:13:34.394Z,101398.06
2023-03-20T14:16:07.174Z,101309.06
2023-03-20T14:18:33.717Z,101402.03
2023-03-20T14:21:02.667Z,101391.00
2023-03-20T14:23:38.049Z,101317.34
2023-03-20T14:26:10.090Z,101357.47
2023-03-20T14:28:54.058Z,101376.94
2023-03-20T14:31:42.255Z,101388.19
2023-03-20T14:34:17.186Z,101339.59
2023-03-20T14:36:59.949Z,101353.00
2023-03-20T14:39:48.173Z,101390.44
2023-03-20T14:42:33.032Z,101396.06
2023-03-20T14:45:18.352Z,101400.06
2023-03-20T14:48:03.698Z,101394.00
2023-03-20T14:50:39.955Z,101395.13
2023-03-20T14:53:21.838Z,101310.03
2023-03-20T14:55:51.283Z,101401.03
2023-03-20T14:58:41.420Z,101398.22
2023-03-20T15:01:17.129Z,101409.50
2023-03-20T15:03:50.133Z,101399.22
2023-03-20T15:06:22.809Z,101398.09
2023-03-20T15:08:53.312Z,101399.38
2023-03-20T15:11:21.960Z,101358.34
2023-03-20T15:13:49.695Z,101387.25
2023-03-20T15:16:16.941Z,101392.75
2023-03-20T15:18:51.722Z,101332.44
2023-03-20T15:21:33.289Z,101374.97
2023-03-20T15:24:01.467Z,101381.06
2023-03-20T15:26:29.745Z,101348.91
2023-03-20T15:29:07.917Z,101395.41
2023-03-20T15:31:38.136Z,101366.53
2023-03-20T15:34:17.998Z,101396.00
2023-03-20T15:36:44.656Z,101331.16
2023-03-20T15:39:18.942Z,101372.88
2023-03-20T15:41:50.444Z,101397.09
2023-03-20T15:44:23.815Z,101396.66
2023-03-20T15:46:59.633Z,101358.00
2023-03-20T15:49:27.966Z,101389.59
2023-03-20T15:51:59.515Z,101325.50
2023-03-20T15:54:26.135Z,101395.13
2023-03-20T15:56:56.104Z,101385.94
2023-03-20T15:59:26.686Z,101395.59
2023-03-20T16:01:57.316Z,101385.72
2023-03-20T16:04:24.533Z,101389.78
2023-03-20T16:06:57.236Z,101368.75
2023-03-20T16:09:25.892Z,101345.91
2023-03-20T16:12:01.368Z,101340.44
2023-03-20T16:14:31.575Z,101332.75
2023-03-20T16:17:00.749Z,101360.97
2023-03-20T16:19:29.154Z,101370.56
2023-03-20T16:22:04.622Z,101364.09
2023-03-20T16:24:38.394Z,101356.91
2023-03-20T16:27:09.739Z,101350.00
2023-03-20T16:29:41.061Z,101349.44
2023-03-20T16:32:20.691Z,101307.03
2023-03-20T16:34:51.355Z,101342.25
2023-03-20T16:37:26.105Z,101294.31
2023-03-20T16:40:26.969Z,101365.28
2023-03-20T16:42:57.384Z,101370.03
2023-03-20T16:45:31.139Z,101377.09
2023-03-20T16:48:34.153Z,101377.66
2023-03-20T16:51:17.613Z,101298.94
2023-03-20T16:53:53.940Z,101387.06
2023-03-20T16:56:29.670Z,101381.00
2023-03-20T16:58:57.094Z,101394.63
2023-03-20T17:01:27.034Z,101386.91
2023-03-20T17:03:56.510Z,101376.16
2023-03-20T17:06:22.991Z,101389.84
2023-03-20T17:08:56.004Z,101398.97
2023-03-20T17:11:24.715Z,101309.31
2023-03-20T17:13:51.309Z,101374.69
2023-03-20T17:16:21.512Z,101399.50
2023-03-20T17:18:57.907Z,101407.44
2023-03-20T17:21:24.469Z,101399.63
2023-03-20T17:23:51.305Z,101379.44
2023-03-20T17:26:17.796Z,101286.34
2023-03-20T17:28:46.442Z,101402.97
2023-03-20T17:31:17.464Z,101410.16
2023-03-20T17:33:45.615Z,101383.03
2023-03-20T17:36:24.424Z,101408.44
2023-03-20T17:38:51.025Z,101395.41
2023-03-20T17:41:20.771Z,101365.91
2023-03-20T17:43:47.651Z,101420.66
2023-03-20T17:46:16.884Z,101426.97
2023-03-20T17:48:43.404Z,101385.44
2023-03-20T17:51:10.128Z,101433.69
2023-03-20T17:53:36.588Z,101376.78
2023-03-20T17:56:03.048Z,101437.84
2023-03-20T17:58:29.568Z,101350.28
2023-03-20T18:00:56.251Z,101331.94
2023-03-20T18:03:22.980Z,101349.16
2023-03-20T18:05:51.190Z,101344.31
2023-03-20T18:08:21.287Z,101388.94
2023-03-20T18:10:49.614Z,101427.63
2023-03-20T18:13:18.640Z,101434.94
2023-03-20T18:15:47.420Z,101381.34
2023-03-20T18:18:14.028Z,101341.78
2023-03-20T18:20:43.469Z,101377.22
2023-03-20T18:23:10.227Z,101344.56
2023-03-20T18:25:36.784Z,101334.56
2023-03-20T18:28:06.073Z,101418.56
2023-03-20T18:30:38.723Z,101304.78
2023-03-20T18:33:06.074Z,101425.03
2023-03-20T18:35:33.327Z,101417.13
2023-03-20T18:38:00.207Z,101394.09
2023-03-20T18:40:35.493Z,101405.81
2023-03-20T18:43:02.992Z,101389.25
2023-03-20T18:45:30.766Z,101419.50
2023-03-20T18:47:58.031Z,101422.16
2023-03-20T18:50:28.811Z,101395.19
2023-03-20T18:52:56.994Z,101394.59
2023-03-20T18:55:26.232Z,101431.41
2023-03-20T18:57:53.313Z,101409.44
2023-03-20T19:00:35.886Z,101417.78
2023-03-20T19:03:02.777Z,101395.44
2023-03-20T19:05:30.239Z,101416.22
2023-03-20T19:07:56.809Z,101421.22
2023-03-20T19:10:29.776Z,101345.47
2023-03-20T19:12:57.358Z,101338.56
2023-03-20T19:15:28.736Z,101413.81
2023-03-20T19:17:55.944Z,101382.03
2023-03-20T19:20:41.665Z,101389.19
2023-03-20T19:23:11.106Z,101407.31
2023-03-20T19:25:38.642Z,101332.28
2023-03-20T19:28:05.742Z,101412.91
2023-03-20T19:30:39.833Z,101414.84
2023-03-20T19:33:07.498Z,101328.41
2023-03-20T19:38:22.111Z,101368.63
2023-03-20T19:40:52.990Z,101411.25
2023-03-20T19:43:21.630Z,101338.50
2023-03-20T19:45:56.481Z,101387.91
2023-03-20T19:51:23.180Z,101406.41
2023-03-20T19:53:50.598Z,101399.63
2023-03-20T19:56:19.558Z,101405.94
2023-03-20T19:58:46.586Z,101396.97
2023-03-20T20:01:19.214Z,101314.94
2023-03-20T20:03:46.491Z,101397.94
2023-03-20T20:06:13.273Z,101394.41
2023-03-20T20:08:48.362Z,101369.28
2023-03-20T20:11:15.668Z,101314.81
2023-03-20T20:14:03.773Z,101363.78
2023-03-20T20:16:29.806Z,101379.31
2023-03-20T20:18:56.520Z,101396.38
2023-03-20T20:24:09.516Z,101343.63
2023-03-20T20:26:40.455Z,101387.09
2023-03-20T20:29:14.526Z,101378.25
2023-03-20T20:31:41.309Z,101383.06
2023-03-20T20:35:08.530Z,101414.22
2023-03-20T20:39:40.787Z,101382.09
2023-03-20T20:42:07.582Z,101314.31
2023-03-20T20:44:34.010Z,101280.50
2023-03-20T20:47:00.613Z,101366.34
2023-03-20T20:49:27.575Z,101376.69
2023-03-20T20:51:54.122Z,101355.25
2023-03-20T20:54:20.870Z,101401.63
2023-03-20T20:56:47.457Z,101409.63
2023-03-20T20:59:13.904Z,101325.72
2023-03-20T21:01:40.440Z,101414.22
2023-03-20T21:04:07.071Z,101407.19
2023-03-20T21:07:05.549Z,101365.19
2023-03-20T21:09:19.985Z,101417.88
2023-03-20T21:11:46.670Z,101394.34
2023-03-20T21:14:14.212Z,101367.00
2023-03-20T21:16:40.656Z,101343.69
2023-03-20T21:19:07.614Z,101345.84
2023-03-20T21:21:35.069Z,101409.41
2023-03-20T21:24:02.283Z,101407.81
2023-03-20T21:26:28.742Z,101388.94
2023-03-20T21:28:55.637Z,101360.53
2023-03-20T21:31:30.284Z,101410.00
2023-03-20T21:33:57.750Z,101364.63
2023-03-20T21:36:24.618Z,101311.34
2023-03-20T21:39:07.475Z,101413.28
2023-03-20T21:41:35.766Z,101387.50
2023-03-20T21:44:03.579Z,101378.91
2023-03-20T21:49:58.715Z,101337.53
2023-03-20T21:55:48.136Z,101375.91
2023-03-20T22:03:11.830Z,101402.63
2023-03-20T22:20:18.513Z,101360.50
2023-03-20T22:25:53.026Z,101292.03
2023-03-20T22:28:34.358Z,101398.16
2023-03-20T22:39:40.869Z,101374.44
2023-03-20T22:45:00.598Z,101304.03
2023-03-20T22:47:22.415Z,101392.97
2023-03-20T22:49:48.903Z,101337.03
2023-03-20T22:52:29.037Z,101386.06
2023-03-20T22:54:58.682Z,101397.19
2023-03-20T22:57:38.493Z,101306.28
2023-03-20T23:00:10.369Z,101389.84
2023-03-20T23:02:37.190Z,101359.78
2023-03-20T23:05:03.914Z,101389.09
2023-03-20T23:07:30.573Z,101391.25
2023-03-20T23:09:58.179Z,101330.50
2023-03-20T23:12:24.644Z,101377.38
2023-03-20T23:14:51.545Z,101394.41
2023-03-20T23:17:18.758Z,101361.84
2023-03-20T23:19:50.325Z,101365.38
2023-03-20T23:22:18.965Z,101373.22
2023-03-20T23:24:45.716Z,101327.00
2023-03-20T23:27:12.184Z,101361.00
2023-03-20T23:29:38.622Z,101379.28
2023-03-20T23:32:05.813Z,101372.25
2023-03-20T23:34:32.407Z,101376.97
2023-03-20T23:36:58.838Z,101297.94
2023-03-20T23:39:25.230Z,101329.53
2023-03-20T23:42:12.007Z,101372.38
2023-03-20T23:44:44.104Z,101354.56
2023-03-20T23:47:20.398Z,101297.34
2023-03-20T23:49:47.848Z,101332.66
2023-03-20T23:52:14.767Z,101317.88
2023-03-20T23:54:41.636Z,101348.38
2023-03-20T23:57:08.298Z,101301.31
2023-03-20T23:59:34.786Z,101308.31
